createdAt,value
2022-11-03T00:01:12.738Z,5.25
2022-11-03T00:03:39.216Z,4.97
2022-11-03T00:06:05.914Z,5.18
2022-11-03T00:08:32.445Z,5.10
2022-11-03T00:11:06.025Z,5.00
2022-11-03T00:13:32.390Z,5.22
2022-11-03T00:15:58.723Z,4.93
2022-11-03T00:18:25.150Z,4.57
2022-11-03T00:20:58.824Z,4.10
2022-11-03T00:23:26.721Z,5.07
2022-11-03T00:25:53.133Z,4.50
2022-11-03T00:28:19.508Z,4.35
2022-11-03T00:30:45.846Z,4.25
2022-11-03T00:33:12.189Z,4.03
2022-11-03T00:35:38.539Z,4.22
2022-11-03T00:38:04.880Z,3.90
2022-11-03T00:40:31.214Z,4.45
2022-11-03T00:42:57.579Z,4.68
2022-11-03T00:45:23.906Z,4.05
2022-11-03T00:48:09.076Z,4.13
2022-11-03T00:50:35.403Z,3.95
2022-11-03T00:53:01.729Z,4.25
2022-11-03T00:55:28.069Z,5.07
2022-11-03T00:57:54.408Z,4.43
2022-11-03T01:00:20.843Z,4.60
2022-11-03T01:02:47.182Z,4.30
2022-11-03T01:05:32.342Z,4.25
2022-11-03T01:10:29.943Z,4.70
2022-11-03T01:12:56.300Z,4.80
2022-11-03T01:15:22.682Z,4.43
2022-11-03T01:17:49.014Z,4.20
2022-11-03T01:20:15.393Z,4.18
2022-11-03T01:22:41.739Z,4.07
2022-11-03T01:25:08.352Z,5.28
2022-11-03T01:27:34.786Z,4.07
2022-11-03T01:30:01.142Z,4.28
2022-11-03T01:32:27.954Z,4.32
2022-11-03T01:34:54.317Z,4.10
2022-11-03T01:37:20.650Z,3.50
2022-11-03T01:39:47.042Z,3.90
2022-11-03T01:42:14.489Z,3.88
2022-11-03T01:44:47.221Z,3.83
2022-11-03T01:47:13.577Z,3.70
2022-11-03T01:49:49.222Z,3.92
2022-11-03T01:52:39.137Z,3.58
2022-11-03T01:55:11.001Z,3.72
2022-11-03T01:57:39.936Z,3.78
2022-11-03T02:00:06.714Z,4.03
2022-11-03T02:02:38.977Z,4.40
2022-11-03T02:05:06.159Z,3.80
2022-11-03T02:07:38.351Z,4.15
2022-11-03T02:10:05.360Z,3.95
2022-11-03T02:12:32.280Z,3.58
2022-11-03T02:15:01.657Z,3.88
2022-11-03T02:17:28.895Z,4.30
2022-11-03T02:20:00.213Z,4.40
2022-11-03T02:22:26.549Z,3.90
2022-11-03T02:24:57.338Z,4.25
2022-11-03T02:27:23.735Z,3.80
2022-11-03T02:29:50.240Z,3.80
2022-11-03T02:32:16.566Z,3.70
2022-11-03T02:34:47.733Z,3.85
2022-11-03T02:37:16.935Z,3.80
2022-11-03T02:40:01.950Z,3.53
2022-11-03T02:42:29.087Z,3.78
2022-11-03T02:44:57.410Z,4.00
2022-11-03T02:47:25.802Z,3.83
2022-11-03T02:52:44.853Z,3.30
2022-11-03T02:55:15.114Z,3.78
2022-11-03T02:57:59.086Z,3.45
2022-11-03T03:00:25.510Z,3.42
2022-11-03T03:03:02.981Z,3.35
2022-11-03T03:05:31.426Z,3.70
2022-11-03T03:07:59.883Z,4.10
2022-11-03T03:10:29.662Z,3.47
2022-11-03T03:12:57.524Z,3.85
2022-11-03T03:15:29.898Z,3.83
2022-11-03T03:18:01.814Z,4.05
2022-11-03T03:20:32.644Z,3.95
2022-11-03T03:23:01.084Z,3.50
2022-11-03T03:25:36.077Z,3.95
2022-11-03T03:28:13.240Z,3.42
2022-11-03T03:30:42.085Z,3.70
2022-11-03T03:33:09.493Z,4.07
2022-11-03T03:35:38.626Z,4.38
2022-11-03T03:38:07.855Z,4.03
2022-11-03T03:40:36.316Z,4.55
2022-11-03T03:43:04.151Z,3.42
2022-11-03T03:45:31.243Z,4.20
2022-11-03T03:47:58.172Z,3.42
2022-11-03T03:50:25.455Z,3.67
2022-11-03T03:52:55.026Z,3.17
2022-11-03T03:55:21.829Z,3.90
2022-11-03T03:57:48.356Z,3.53
2022-11-03T04:00:16.020Z,3.53
2022-11-03T04:02:42.538Z,3.55
2022-11-03T04:05:08.932Z,3.40
2022-11-03T04:07:47.498Z,3.40
2022-11-03T04:10:17.681Z,3.33
2022-11-03T04:13:02.989Z,3.25
2022-11-03T04:15:48.744Z,2.63
2022-11-03T04:18:34.075Z,3.10
2022-11-03T04:21:18.964Z,3.30
2022-11-03T04:23:45.329Z,3.42
2022-11-03T04:26:13.640Z,3.35
2022-11-03T04:28:41.158Z,3.40
2022-11-03T04:31:12.111Z,3.58
2022-11-03T04:33:38.758Z,2.95
2022-11-03T04:36:10.315Z,2.45
2022-11-03T04:38:37.188Z,3.03
2022-11-03T04:41:06.922Z,3.28
2022-11-03T04:43:34.474Z,3.17
2022-11-03T04:46:01.137Z,3.20
2022-11-03T04:48:27.952Z,3.30
2022-11-03T04:50:55.642Z,2.75
2022-11-03T04:53:22.738Z,2.80
2022-11-03T04:55:52.997Z,3.15
2022-11-03T04:58:24.196Z,2.90
2022-11-03T05:03:35.939Z,3.47
2022-11-03T05:06:09.994Z,3.47
2022-11-03T05:11:08.302Z,3.10
2022-11-03T05:13:34.770Z,3.25
2022-11-03T05:16:02.988Z,3.13
2022-11-03T05:18:35.156Z,3.22
2022-11-03T05:21:03.645Z,3.22
2022-11-03T05:23:36.532Z,4.80
2022-11-03T05:26:03.392Z,3.60
2022-11-03T05:28:37.602Z,4.60
2022-11-03T05:31:24.211Z,3.80
2022-11-03T05:33:51.516Z,3.90
2022-11-03T05:36:22.188Z,3.88
2022-11-03T05:38:48.678Z,3.60
2022-11-03T05:41:19.558Z,3.35
2022-11-03T05:43:50.351Z,3.78
2022-11-03T05:46:16.689Z,3.60
2022-11-03T05:48:46.101Z,4.45
2022-11-03T05:51:19.150Z,4.90
2022-11-03T05:53:46.300Z,3.15
2022-11-03T05:56:17.740Z,3.95
2022-11-03T05:58:44.408Z,3.65
2022-11-03T06:01:18.845Z,3.38
2022-11-03T06:03:45.921Z,3.33
2022-11-03T06:06:20.814Z,4.00
2022-11-03T06:08:47.593Z,3.92
2022-11-03T06:11:24.566Z,3.40
2022-11-03T06:13:50.945Z,3.25
2022-11-03T06:16:17.269Z,4.13
2022-11-03T06:18:43.660Z,3.75
2022-11-03T06:21:13.906Z,3.58
2022-11-03T06:23:40.971Z,3.35
2022-11-03T06:26:15.955Z,3.78
2022-11-03T06:28:42.390Z,4.53
2022-11-03T06:31:20.295Z,4.05
2022-11-03T06:33:49.937Z,4.05
2022-11-03T06:36:18.268Z,3.95
2022-11-03T06:38:48.699Z,3.72
2022-11-03T06:41:20.738Z,4.50
2022-11-03T06:43:47.099Z,4.47
2022-11-03T06:46:21.249Z,5.32
2022-11-03T06:48:47.657Z,4.80
2022-11-03T06:51:27.229Z,4.38
2022-11-03T06:53:54.288Z,4.47
2022-11-03T06:56:24.574Z,4.40
2022-11-03T06:58:52.508Z,4.63
2022-11-03T07:01:21.121Z,3.70
2022-11-03T07:03:49.295Z,3.97
2022-11-03T07:06:15.625Z,4.22
2022-11-03T07:08:43.531Z,4.22
2022-11-03T07:11:09.846Z,4.22
2022-11-03T07:13:36.503Z,3.88
2022-11-03T07:16:03.193Z,3.85
2022-11-03T07:18:31.763Z,4.65
2022-11-03T07:20:58.734Z,4.13
2022-11-03T07:23:26.953Z,5.10
2022-11-03T07:25:54.569Z,4.63
2022-11-03T07:28:22.952Z,4.82
2022-11-03T07:30:49.330Z,6.80
2022-11-03T07:33:20.378Z,8.18
2022-11-03T07:36:13.638Z,7.38
2022-11-03T07:38:33.722Z,6.63
2022-11-03T07:41:00.165Z,8.07
2022-11-03T07:43:29.542Z,5.97
2022-11-03T07:45:57.474Z,5.32
2022-11-03T07:48:44.213Z,4.22
2022-11-03T07:51:31.254Z,5.65
2022-11-03T07:53:57.622Z,5.65
2022-11-03T07:56:26.277Z,4.97
2022-11-03T07:58:58.914Z,6.38
2022-11-03T08:01:32.809Z,5.30
2022-11-03T08:06:25.586Z,6.90
2022-11-03T08:08:51.975Z,6.15
2022-11-03T08:11:19.092Z,6.70
2022-11-03T08:13:45.898Z,6.35
2022-11-03T08:16:12.266Z,9.65
2022-11-03T08:18:38.677Z,6.97
2022-11-03T08:21:05.593Z,4.85
2022-11-03T08:23:32.500Z,5.22
2022-11-03T08:25:59.206Z,4.50
2022-11-03T08:28:25.666Z,4.55
2022-11-03T08:31:02.278Z,5.15
2022-11-03T08:35:56.084Z,4.72
2022-11-03T08:38:22.498Z,4.22
2022-11-03T08:40:52.745Z,6.10
2022-11-03T08:43:21.960Z,6.18
2022-11-03T08:45:53.447Z,6.60
2022-11-03T08:48:23.652Z,6.13
2022-11-03T08:50:54.201Z,5.00
2022-11-03T08:53:21.093Z,6.00
2022-11-03T08:55:47.429Z,5.05
2022-11-03T08:58:13.778Z,5.43
2022-11-03T09:00:41.271Z,4.88
2022-11-03T09:03:07.865Z,5.22
2022-11-03T09:05:34.379Z,5.80
2022-11-03T09:10:47.175Z,10.15
2022-11-03T09:13:13.563Z,4.88
2022-11-03T09:15:39.932Z,4.60
2022-11-03T09:18:06.587Z,5.22
2022-11-03T09:20:33.235Z,4.82
2022-11-03T09:22:59.570Z,5.53
2022-11-03T09:25:25.932Z,5.93
2022-11-03T09:27:52.304Z,5.20
2022-11-03T09:30:18.783Z,5.15
2022-11-03T09:32:46.292Z,5.93
2022-11-03T09:35:14.473Z,5.47
2022-11-03T09:37:41.066Z,5.35
2022-11-03T09:40:09.510Z,4.95
2022-11-03T09:42:36.455Z,5.65
2022-11-03T09:45:04.685Z,5.53
2022-11-03T09:47:35.878Z,5.65
2022-11-03T09:50:02.674Z,5.50
2022-11-03T09:52:29.323Z,5.53
2022-11-03T09:54:55.842Z,5.93
2022-11-03T09:57:22.915Z,5.40
2022-11-03T09:59:50.469Z,5.50
2022-11-03T10:02:22.840Z,5.45
2022-11-03T10:04:49.585Z,5.10
2022-11-03T10:07:16.206Z,5.40
2022-11-03T10:09:44.071Z,4.97
2022-11-03T10:12:10.527Z,4.13
2022-11-03T10:14:37.015Z,3.63
2022-11-03T10:17:03.489Z,3.60
2022-11-03T10:19:30.166Z,1.98
2022-11-03T10:21:56.532Z,2.42
2022-11-03T10:24:22.920Z,2.17
2022-11-03T10:26:50.247Z,2.00
2022-11-03T10:31:50.438Z,2.33
2022-11-03T10:34:27.533Z,2.90
2022-11-03T10:37:11.280Z,2.70
2022-11-03T10:39:37.768Z,2.15
2022-11-03T10:42:04.339Z,2.20
2022-11-03T10:44:30.893Z,2.25
2022-11-03T10:47:01.688Z,2.85
2022-11-03T10:49:31.990Z,4.22
2022-11-03T10:52:14.103Z,2.88
2022-11-03T10:54:40.443Z,4.85
2022-11-03T10:57:06.892Z,3.05
2022-11-03T10:59:34.597Z,2.70
2022-11-03T11:02:01.304Z,2.42
2022-11-03T11:04:27.919Z,2.45
2022-11-03T11:06:54.467Z,2.63
2022-11-03T11:09:23.311Z,2.33
2022-11-03T11:12:08.417Z,2.05
2022-11-03T11:14:37.007Z,1.85
2022-11-03T11:17:04.047Z,1.83
2022-11-03T11:19:30.587Z,2.28
2022-11-03T11:21:57.197Z,2.50
2022-11-03T11:24:42.155Z,2.17
2022-11-03T11:27:27.459Z,2.42
2022-11-03T11:29:53.769Z,1.95
2022-11-03T11:32:38.942Z,2.53
2022-11-03T11:35:09.829Z,2.10
2022-11-03T11:37:36.956Z,2.35
2022-11-03T11:40:09.010Z,2.03
2022-11-03T11:42:55.397Z,2.20
2022-11-03T11:45:41.749Z,2.53
2022-11-03T11:48:18.985Z,2.47
2022-11-03T11:50:45.777Z,2.45
2022-11-03T11:53:13.970Z,2.15
2022-11-03T11:55:43.281Z,2.40
2022-11-03T11:58:18.310Z,2.42
2022-11-03T12:00:55.855Z,2.00
2022-11-03T12:03:25.238Z,2.10
2022-11-03T12:05:51.602Z,1.88
2022-11-03T12:08:18.973Z,2.40
2022-11-03T12:10:52.294Z,1.73
2022-11-03T12:13:34.792Z,2.08
2022-11-03T12:16:01.143Z,1.90
2022-11-03T12:18:39.089Z,1.92
2022-11-03T12:21:16.957Z,1.80
2022-11-03T12:23:44.548Z,1.90
2022-11-03T12:26:34.299Z,2.20
2022-11-03T12:29:00.661Z,1.92
2022-11-03T12:31:27.094Z,2.08
2022-11-03T12:33:53.486Z,1.60
2022-11-03T12:36:19.875Z,1.88
2022-11-03T12:38:46.233Z,2.20
2022-11-03T12:41:21.741Z,2.15
2022-11-03T12:43:48.994Z,2.55
2022-11-03T12:46:16.683Z,1.75
2022-11-03T12:48:44.091Z,1.77
2022-11-03T12:51:14.332Z,1.90
2022-11-03T12:53:41.103Z,1.67
2022-11-03T12:56:09.000Z,1.73
2022-11-03T12:58:35.596Z,1.92
2022-11-03T13:01:02.364Z,1.90
2022-11-03T13:03:29.084Z,2.00
2022-11-03T13:05:55.856Z,1.65
2022-11-03T13:08:22.309Z,1.90
2022-11-03T13:10:48.671Z,2.05
2022-11-03T13:13:15.112Z,2.22
2022-11-03T13:15:41.491Z,2.15
2022-11-03T13:18:13.237Z,1.90
2022-11-03T13:20:41.019Z,1.70
2022-11-03T13:23:07.688Z,2.10
2022-11-03T13:25:34.280Z,1.73
2022-11-03T13:28:02.977Z,2.08
2022-11-03T13:30:29.956Z,1.65
2022-11-03T13:32:56.414Z,2.42
2022-11-03T13:35:23.000Z,2.20
2022-11-03T13:37:49.807Z,2.30
2022-11-03T13:40:42.736Z,1.90
2022-11-03T13:43:02.821Z,1.90
2022-11-03T13:45:29.172Z,1.75
2022-11-03T13:50:41.935Z,2.85
2022-11-03T13:55:57.532Z,1.90
2022-11-03T14:01:13.680Z,1.85
2022-11-03T14:06:26.931Z,1.77
2022-11-03T14:08:53.292Z,2.10
2022-11-03T14:11:38.497Z,2.22
2022-11-03T14:14:04.853Z,1.67
2022-11-03T14:16:31.210Z,1.85
2022-11-03T14:18:57.681Z,1.67
2022-11-03T14:21:24.082Z,2.05
2022-11-03T14:23:50.468Z,2.20
2022-11-03T14:26:25.359Z,2.42
2022-11-03T14:28:59.612Z,1.63
2022-11-03T14:31:26.035Z,2.17
2022-11-03T14:33:52.416Z,2.47
2022-11-03T14:36:19.136Z,2.75
2022-11-03T14:38:49.879Z,2.20
2022-11-03T14:41:35.311Z,2.00
2022-11-03T14:44:03.183Z,2.50
2022-11-03T14:46:29.903Z,2.67
2022-11-03T14:48:56.312Z,2.25
2022-11-03T14:51:22.655Z,2.28
2022-11-03T14:53:49.437Z,1.90
2022-11-03T14:56:15.828Z,2.13
2022-11-03T14:58:42.214Z,2.00
2022-11-03T15:01:09.254Z,2.30
2022-11-03T15:03:35.743Z,2.05
2022-11-03T15:06:02.089Z,1.77
2022-11-03T15:08:29.661Z,2.40
2022-11-03T15:10:56.033Z,2.17
2022-11-03T15:13:22.405Z,2.38
2022-11-03T15:15:48.797Z,2.30
2022-11-03T15:18:15.348Z,2.22
2022-11-03T15:20:41.786Z,2.30
2022-11-03T15:25:55.287Z,4.13
2022-11-03T15:28:21.651Z,7.28
2022-11-03T15:30:50.881Z,5.13
2022-11-03T15:33:17.309Z,2.83
2022-11-03T15:35:43.796Z,3.00
2022-11-03T15:38:10.222Z,2.65
2022-11-03T15:40:36.612Z,2.85
2022-11-03T15:43:03.350Z,2.97
2022-11-03T15:45:29.748Z,2.80
2022-11-03T15:47:58.545Z,2.88
2022-11-03T15:50:25.820Z,3.95
2022-11-03T15:52:52.639Z,3.42
2022-11-03T15:55:19.287Z,2.95
2022-11-03T15:57:45.639Z,2.60
2022-11-03T16:00:12.522Z,3.42
2022-11-03T16:02:41.741Z,3.33
2022-11-03T16:05:09.084Z,3.45
2022-11-03T16:07:35.441Z,3.75
2022-11-03T16:10:01.889Z,2.80
2022-11-03T16:12:28.405Z,3.22
2022-11-03T16:14:54.832Z,2.90
2022-11-03T16:17:22.781Z,3.20
2022-11-03T16:19:49.355Z,3.13
2022-11-03T16:22:16.018Z,3.25
2022-11-03T16:24:44.179Z,3.30
2022-11-03T16:27:10.562Z,3.13
2022-11-03T16:29:36.967Z,3.63
2022-11-03T16:32:03.324Z,3.03
2022-11-03T16:34:29.684Z,3.20
2022-11-03T16:36:56.294Z,4.78
2022-11-03T16:39:22.715Z,4.72
2022-11-03T16:41:49.289Z,4.82
2022-11-03T16:44:15.651Z,4.10
2022-11-03T16:46:42.020Z,3.30
2022-11-03T16:49:08.539Z,3.58
2022-11-03T16:51:34.865Z,3.13
2022-11-03T16:54:01.333Z,3.67
2022-11-03T16:56:27.688Z,3.35
2022-11-03T16:58:54.024Z,3.40
2022-11-03T17:01:20.690Z,3.10
2022-11-03T17:03:47.163Z,3.33
2022-11-03T17:06:13.621Z,3.58
2022-11-03T17:08:52.354Z,3.40
2022-11-03T17:11:40.204Z,3.25
2022-11-03T17:14:07.587Z,3.88
2022-11-03T17:16:34.310Z,3.53
2022-11-03T17:19:00.819Z,3.45
2022-11-03T17:21:27.519Z,3.58
2022-11-03T17:23:53.927Z,3.95
2022-11-03T17:26:22.197Z,4.18
2022-11-03T17:28:49.183Z,4.00
2022-11-03T17:31:16.329Z,4.28
2022-11-03T17:33:42.729Z,3.58
2022-11-03T17:36:09.400Z,3.55
2022-11-03T17:38:38.146Z,4.70
2022-11-03T17:41:04.633Z,5.30
2022-11-03T17:43:31.389Z,4.22
2022-11-03T17:45:57.959Z,4.20
2022-11-03T17:48:24.481Z,4.30
2022-11-03T17:50:53.359Z,4.70
2022-11-03T17:53:24.568Z,3.35
2022-11-03T17:56:09.027Z,5.88
2022-11-03T17:58:44.807Z,9.65
2022-11-03T18:01:13.961Z,8.82
2022-11-03T18:03:40.579Z,5.07
2022-11-03T18:06:13.416Z,5.53
2022-11-03T18:08:39.784Z,3.97
2022-11-03T18:11:06.253Z,3.42
2022-11-03T18:13:34.520Z,3.83
2022-11-03T18:16:01.005Z,4.28
2022-11-03T18:18:31.627Z,3.90
2022-11-03T18:20:58.453Z,3.80
2022-11-03T18:23:26.589Z,3.85
2022-11-03T18:25:53.530Z,3.08
2022-11-03T18:28:20.102Z,3.33
2022-11-03T18:30:47.821Z,4.10
2022-11-03T18:33:17.070Z,10.85
2022-11-03T18:35:43.698Z,5.32
2022-11-03T18:38:14.275Z,5.07
2022-11-03T18:40:41.568Z,3.45
2022-11-03T18:43:21.039Z,3.38
2022-11-03T18:45:47.744Z,4.22
2022-11-03T18:48:19.335Z,4.65
2022-11-03T18:50:50.113Z,3.53
2022-11-03T18:53:17.681Z,3.15
2022-11-03T18:55:44.188Z,3.17
2022-11-03T18:58:28.697Z,3.55
2022-11-03T19:00:55.241Z,3.70
2022-11-03T19:03:22.928Z,3.75
2022-11-03T19:05:50.320Z,3.72
2022-11-03T19:08:20.200Z,3.65
2022-11-03T19:10:47.348Z,3.50
2022-11-03T19:13:14.942Z,3.85
2022-11-03T19:15:41.370Z,3.72
2022-11-03T19:18:09.689Z,3.88
2022-11-03T19:20:36.487Z,4.38
2022-11-03T19:23:02.954Z,6.97
2022-11-03T19:25:29.315Z,4.53
2022-11-03T19:27:55.905Z,3.50
2022-11-03T19:30:22.494Z,4.40
2022-11-03T19:32:51.526Z,4.15
2022-11-03T19:35:22.466Z,4.25
2022-11-03T19:37:49.751Z,4.80
2022-11-03T19:40:17.558Z,5.20
2022-11-03T19:42:44.980Z,4.47
2022-11-03T19:45:14.522Z,4.60
2022-11-03T19:47:57.623Z,4.70
2022-11-03T19:50:30.601Z,4.68
2022-11-03T19:53:02.595Z,4.95
2022-11-03T19:55:33.923Z,4.78
2022-11-03T19:58:14.048Z,4.57
2022-11-03T20:00:40.787Z,4.40
2022-11-03T20:03:07.236Z,4.63
2022-11-03T20:05:33.735Z,4.65
2022-11-03T20:08:01.800Z,4.53
2022-11-03T20:10:31.656Z,5.18
2022-11-03T20:13:01.508Z,4.57
2022-11-03T20:15:27.862Z,4.38
2022-11-03T20:17:54.247Z,4.75
2022-11-03T20:20:26.635Z,5.50
2022-11-03T20:22:55.368Z,4.75
2022-11-03T20:25:27.105Z,4.95
2022-11-03T20:27:56.001Z,4.90
2022-11-03T20:30:22.856Z,4.90
2022-11-03T20:32:49.202Z,4.40
2022-11-03T20:35:23.121Z,4.88
2022-11-03T20:37:52.098Z,4.60
2022-11-03T20:40:19.980Z,4.90
2022-11-03T20:42:48.217Z,4.88
2022-11-03T20:45:16.142Z,4.32
2022-11-03T20:47:48.032Z,4.43
2022-11-03T20:50:15.886Z,3.88
2022-11-03T20:52:42.975Z,4.45
2022-11-03T20:55:20.075Z,4.15
2022-11-03T20:57:47.403Z,5.47
2022-11-03T21:00:15.022Z,4.88
2022-11-03T21:02:41.635Z,5.38
2022-11-03T21:05:18.800Z,5.32
2022-11-03T21:07:45.169Z,5.10
2022-11-03T21:10:15.517Z,4.75
2022-11-03T21:12:44.660Z,4.72
2022-11-03T21:15:33.458Z,5.35
2022-11-03T21:18:18.335Z,4.57
2022-11-03T21:20:45.268Z,4.35
2022-11-03T21:23:15.755Z,4.32
2022-11-03T21:25:42.144Z,5.72
2022-11-03T21:28:08.765Z,4.00
2022-11-03T21:30:35.448Z,4.03
2022-11-03T21:33:01.805Z,4.63
2022-11-03T21:35:28.140Z,3.92
2022-11-03T21:37:54.499Z,3.40
2022-11-03T21:40:20.905Z,4.15
2022-11-03T21:43:06.016Z,4.32
2022-11-03T21:45:32.687Z,2.97
2022-11-03T21:48:18.261Z,3.05
2022-11-03T21:50:44.929Z,3.28
2022-11-03T21:53:11.863Z,2.75
2022-11-03T21:55:38.612Z,2.72
2022-11-03T21:58:05.025Z,2.95
2022-11-03T22:00:31.870Z,2.20
2022-11-03T22:03:01.256Z,2.45
2022-11-03T22:05:27.684Z,2.38
2022-11-03T22:07:54.059Z,2.40
2022-11-03T22:10:20.533Z,2.25
2022-11-03T22:12:46.906Z,2.08
2022-11-03T22:15:32.145Z,2.17
2022-11-03T22:18:01.910Z,2.08
2022-11-03T22:20:47.161Z,2.10
2022-11-03T22:23:34.074Z,1.88
2022-11-03T22:26:19.854Z,1.90
2022-11-03T22:28:46.277Z,1.83
2022-11-03T22:31:31.399Z,2.30
2022-11-03T22:34:16.388Z,1.83
2022-11-03T22:36:42.832Z,2.00
2022-11-03T22:39:27.804Z,1.80
2022-11-03T22:42:12.703Z,1.40
2022-11-03T22:44:57.512Z,1.73
2022-11-03T22:47:23.881Z,1.48
2022-11-03T22:49:50.259Z,2.85
2022-11-03T22:52:16.658Z,3.17
2022-11-03T22:54:43.021Z,1.70
2022-11-03T22:57:11.225Z,1.50
2022-11-03T22:59:37.587Z,1.60
2022-11-03T23:02:04.117Z,1.75
2022-11-03T23:04:30.580Z,1.90
2022-11-03T23:06:56.932Z,1.63
2022-11-03T23:09:23.349Z,1.83
2022-11-03T23:11:49.725Z,1.50
2022-11-03T23:14:16.120Z,1.52
2022-11-03T23:16:43.274Z,1.60
2022-11-03T23:19:29.346Z,1.20
2022-11-03T23:21:56.042Z,1.92
2022-11-03T23:24:45.013Z,1.13
2022-11-03T23:27:12.726Z,1.10
2022-11-03T23:29:39.325Z,1.42
2022-11-03T23:32:05.778Z,1.60
2022-11-03T23:34:32.203Z,1.30
2022-11-03T23:36:58.588Z,0.77
2022-11-03T23:39:24.986Z,1.20
2022-11-03T23:41:51.412Z,1.20
2022-11-03T23:44:17.891Z,1.10
2022-11-03T23:47:03.021Z,1.13
2022-11-03T23:49:29.387Z,1.20
2022-11-03T23:51:55.829Z,1.83
2022-11-03T23:54:22.228Z,1.38
2022-11-03T23:57:07.082Z,1.30
2022-11-03T23:59:34.047Z,1.20
